createdAt,value
2019-03-27T00:01:00.540Z,103221.31
2019-03-27T00:02:01.086Z,103220.38
2019-03-27T00:03:01.566Z,103220.13
2019-03-27T00:04:01.983Z,103219.72
2019-03-27T00:05:02.561Z,103219.20
2019-03-27T00:06:02.550Z,103218.43
2019-03-27T00:07:03.129Z,103217.59
2019-03-27T00:08:03.829Z,103217.41
2019-03-27T00:09:04.311Z,103217.16
2019-03-27T00:10:04.825Z,103216.64
2019-03-27T00:11:05.539Z,103216.55
2019-03-27T00:12:06.087Z,103216.23
2019-03-27T00:13:06.441Z,103215.55
2019-03-27T00:14:07.181Z,103214.78
2019-03-27T00:15:13.248Z,103214.26
2019-03-27T00:16:07.509Z,103213.84
2019-03-27T00:17:08.147Z,103213.14
2019-03-27T00:18:09.839Z,103212.58
2019-03-27T00:19:10.393Z,103212.05
2019-03-27T00:20:10.968Z,103211.55
2019-03-27T00:21:11.707Z,103210.86
2019-03-27T00:22:12.228Z,103210.11
2019-03-27T00:22:20.768Z,103195.61
2019-03-27T00:23:22.525Z,103195.18
2019-03-27T00:24:23.145Z,103195.18
2019-03-27T00:25:23.712Z,103194.92
2019-03-27T00:26:24.207Z,103195.25
2019-03-27T00:27:23.732Z,103194.15
2019-03-27T00:28:24.971Z,103194.15
2019-03-27T00:29:25.714Z,103193.75
2019-03-27T00:30:26.148Z,103192.72
2019-03-27T00:31:26.956Z,103192.63
2019-03-27T00:32:27.440Z,103193.13
2019-03-27T00:33:27.867Z,103193.23
2019-03-27T00:34:28.764Z,103192.87
2019-03-27T00:35:29.440Z,103193.31
2019-03-27T00:36:29.957Z,103193.55
2019-03-27T00:37:30.375Z,103192.97
2019-03-27T00:38:30.840Z,103192.94
2019-03-27T00:39:31.684Z,103193.19
2019-03-27T00:40:32.162Z,103193.36
2019-03-27T00:41:32.997Z,103192.94
2019-03-27T00:42:33.890Z,103192.86
2019-03-27T00:43:34.716Z,103192.91
2019-03-27T00:44:34.307Z,103193.16
2019-03-27T00:45:35.541Z,103193.41
2019-03-27T00:46:36.016Z,103193.05
2019-03-27T00:47:36.466Z,103193.39
2019-03-27T00:48:36.933Z,103192.63
2019-03-27T00:49:37.930Z,103192.71
2019-03-27T00:50:38.344Z,103192.42
2019-03-27T00:51:39.034Z,103192.27
2019-03-27T00:52:39.404Z,103192.41
2019-03-27T00:53:38.875Z,103192.59
2019-03-27T00:54:40.407Z,103192.59
2019-03-27T00:55:39.808Z,103192.64
2019-03-27T00:56:41.281Z,103193.23
2019-03-27T00:57:41.711Z,103193.81
2019-03-27T00:58:42.238Z,103194.47
2019-03-27T00:59:42.688Z,103194.29
2019-03-27T01:00:42.990Z,103194.38
2019-03-27T01:01:43.682Z,103193.69
2019-03-27T01:02:44.132Z,103194.10
2019-03-27T01:03:44.633Z,103194.19
2019-03-27T01:04:45.291Z,103194.41
2019-03-27T01:05:46.053Z,103194.48
2019-03-27T01:06:45.485Z,103194.30
2019-03-27T01:07:46.056Z,103194.64
2019-03-27T01:08:47.675Z,103194.79
2019-03-27T01:09:48.139Z,103194.62
2019-03-27T01:09:58.755Z,103188.99
2019-03-27T01:10:59.227Z,103188.42
2019-03-27T01:12:00.699Z,103188.77
2019-03-27T01:13:01.198Z,103189.00
2019-03-27T01:14:01.888Z,103188.98
2019-03-27T01:15:02.612Z,103189.48
2019-03-27T01:16:03.455Z,103189.30
2019-03-27T01:17:04.164Z,103189.91
2019-03-27T01:18:04.745Z,103189.81
2019-03-27T01:19:04.234Z,103190.48
2019-03-27T01:20:05.801Z,103190.32
2019-03-27T01:21:06.451Z,103190.99
2019-03-27T01:22:05.978Z,103190.89
2019-03-27T01:23:07.475Z,103190.53
2019-03-27T01:24:07.943Z,103190.81
2019-03-27T01:25:08.472Z,103191.31
2019-03-27T01:26:09.118Z,103191.38
2019-03-27T01:27:09.696Z,103192.05
2019-03-27T01:28:10.144Z,103192.37
2019-03-27T01:29:10.688Z,103191.94
2019-03-27T01:30:11.073Z,103191.78
2019-03-27T01:31:11.407Z,103191.87
2019-03-27T01:32:11.995Z,103192.02
2019-03-27T01:33:12.615Z,103191.75
2019-03-27T01:34:13.040Z,103191.39
2019-03-27T01:35:13.306Z,103192.00
2019-03-27T01:36:13.709Z,103192.25
2019-03-27T01:37:14.257Z,103192.23
2019-03-27T01:38:14.891Z,103192.47
2019-03-27T01:39:15.598Z,103192.98
2019-03-27T01:40:16.157Z,103193.29
2019-03-27T01:41:16.677Z,103192.87
2019-03-27T01:42:16.996Z,103192.77
2019-03-27T01:43:17.474Z,103192.70
2019-03-27T01:44:17.902Z,103193.28
2019-03-27T01:45:18.353Z,103193.13
2019-03-27T01:46:18.850Z,103192.94
2019-03-27T01:47:19.285Z,103193.17
2019-03-27T01:48:19.777Z,103192.67
2019-03-27T01:49:20.283Z,103192.92
2019-03-27T01:50:20.781Z,103193.16
2019-03-27T01:51:21.365Z,103193.43
2019-03-27T01:52:21.795Z,103193.84
2019-03-27T01:53:22.608Z,103193.48
2019-03-27T01:54:23.105Z,103193.75
2019-03-27T01:55:23.748Z,103193.55
2019-03-27T01:55:32.757Z,103195.25
2019-03-27T01:56:34.138Z,103195.08
2019-03-27T01:57:34.534Z,103194.81
2019-03-27T01:58:35.088Z,103195.31
2019-03-27T01:59:35.606Z,103195.25
2019-03-27T02:00:36.087Z,103195.31
2019-03-27T02:01:36.563Z,103195.08
2019-03-27T02:02:37.045Z,103195.16
2019-03-27T02:03:37.795Z,103195.13
2019-03-27T02:04:38.369Z,103195.23
2019-03-27T02:05:38.657Z,103195.31
2019-03-27T02:06:39.082Z,103195.28
2019-03-27T02:07:39.576Z,103195.39
2019-03-27T02:08:39.044Z,103195.30
2019-03-27T02:09:40.620Z,103195.53
2019-03-27T02:10:41.019Z,103195.70
2019-03-27T02:11:41.538Z,103196.13
2019-03-27T02:12:41.930Z,103196.59
2019-03-27T02:13:42.469Z,103196.95
2019-03-27T02:14:43.070Z,103196.48
2019-03-27T02:15:43.373Z,103196.66
2019-03-27T02:16:43.814Z,103197.07
2019-03-27T02:17:44.289Z,103196.97
2019-03-27T02:18:44.734Z,103197.08
2019-03-27T02:19:45.298Z,103197.31
2019-03-27T02:20:45.718Z,103197.39
2019-03-27T02:21:45.996Z,103197.89
2019-03-27T02:22:46.473Z,103198.06
2019-03-27T02:23:46.962Z,103197.83
2019-03-27T02:24:47.738Z,103197.66
2019-03-27T02:25:48.218Z,103197.06
2019-03-27T02:26:48.566Z,103197.23
2019-03-27T02:27:48.881Z,103197.49
2019-03-27T02:28:49.355Z,103197.49
2019-03-27T02:29:49.929Z,103197.49
2019-03-27T02:30:50.496Z,103196.90
2019-03-27T02:31:50.892Z,103197.06
2019-03-27T02:32:51.247Z,103197.56
2019-03-27T02:33:51.654Z,103197.04
2019-03-27T02:34:52.238Z,103197.05
2019-03-27T02:35:53.067Z,103196.85
2019-03-27T02:36:53.712Z,103197.10
2019-03-27T02:37:54.112Z,103197.11
2019-03-27T02:38:54.568Z,103196.52
2019-03-27T02:39:03.084Z,103189.90
2019-03-27T02:40:04.501Z,103189.97
2019-03-27T02:41:05.109Z,103190.98
2019-03-27T02:42:05.601Z,103191.48
2019-03-27T02:43:06.114Z,103190.89
2019-03-27T02:44:06.612Z,103191.22
2019-03-27T02:45:07.479Z,103191.82
2019-03-27T02:46:23.340Z,103191.39
2019-03-27T02:47:07.552Z,103191.22
2019-03-27T02:48:08.956Z,103191.73
2019-03-27T02:49:09.404Z,103191.78
2019-03-27T02:50:09.737Z,103191.63
2019-03-27T02:51:10.330Z,103191.96
2019-03-27T02:52:10.763Z,103191.78
2019-03-27T02:53:11.265Z,103191.99
2019-03-27T02:54:11.702Z,103192.14
2019-03-27T02:55:12.098Z,103191.73
2019-03-27T02:56:12.635Z,103192.21
2019-03-27T02:57:13.258Z,103192.53
2019-03-27T02:58:13.743Z,103192.85
2019-03-27T02:59:14.455Z,103193.00
2019-03-27T03:00:15.323Z,103193.66
2019-03-27T03:01:16.192Z,103194.08
2019-03-27T03:02:16.673Z,103194.95
2019-03-27T03:03:17.087Z,103195.38
2019-03-27T03:04:17.403Z,103195.86
2019-03-27T03:05:17.805Z,103195.84
2019-03-27T03:06:18.351Z,103195.92
2019-03-27T03:07:19.101Z,103196.58
2019-03-27T03:08:19.596Z,103196.96
2019-03-27T03:09:20.159Z,103197.48
2019-03-27T03:10:20.647Z,103197.80
2019-03-27T03:11:21.195Z,103198.28
2019-03-27T03:12:21.862Z,103198.59
2019-03-27T03:13:22.566Z,103199.18
2019-03-27T03:14:23.297Z,103199.06
2019-03-27T03:15:24.220Z,103198.88
2019-03-27T03:16:40.885Z,103199.30
2019-03-27T03:17:24.317Z,103199.28
2019-03-27T03:18:25.764Z,103199.52
2019-03-27T03:19:26.232Z,103199.23
2019-03-27T03:20:25.838Z,103199.55
2019-03-27T03:21:27.341Z,103199.11
2019-03-27T03:22:27.859Z,103198.92
2019-03-27T03:23:28.461Z,103198.48
2019-03-27T03:24:28.917Z,103198.38
2019-03-27T03:25:29.450Z,103198.27
2019-03-27T03:25:38.016Z,103202.95
2019-03-27T03:26:39.528Z,103202.36
2019-03-27T03:27:39.162Z,103202.19
2019-03-27T03:28:40.894Z,103201.92
2019-03-27T03:29:41.431Z,103201.26
2019-03-27T03:30:41.705Z,103200.83
2019-03-27T03:31:41.424Z,103200.13
2019-03-27T03:32:42.896Z,103199.91
2019-03-27T03:33:42.314Z,103199.37
2019-03-27T03:34:42.741Z,103199.48
2019-03-27T03:35:44.238Z,103199.19
2019-03-27T03:36:45.063Z,103198.95
2019-03-27T03:37:45.474Z,103198.33
2019-03-27T03:38:44.578Z,103198.07
2019-03-27T03:39:46.040Z,103197.31
2019-03-27T03:40:46.466Z,103196.89
2019-03-27T03:41:47.045Z,103196.03
2019-03-27T03:42:46.549Z,103196.11
2019-03-27T03:43:48.000Z,103195.63
2019-03-27T03:44:48.488Z,103195.27
2019-03-27T03:45:48.977Z,103195.18
2019-03-27T03:46:59.502Z,103194.99
2019-03-27T03:47:49.120Z,103195.06
2019-03-27T03:48:51.014Z,103195.14
2019-03-27T03:49:51.626Z,103195.19
2019-03-27T03:50:51.213Z,103195.67
2019-03-27T03:51:52.816Z,103196.02
2019-03-27T03:52:53.378Z,103195.73
2019-03-27T03:53:54.107Z,103196.05
2019-03-27T03:54:55.061Z,103196.27
2019-03-27T03:55:55.654Z,103196.52
2019-03-27T03:56:57.401Z,103196.97
2019-03-27T03:57:56.916Z,103197.45
2019-03-27T03:58:57.388Z,103198.02
2019-03-27T03:59:58.244Z,103198.33
2019-03-27T04:00:58.926Z,103197.91
2019-03-27T04:01:59.543Z,103198.63
2019-03-27T04:03:00.143Z,103199.17
2019-03-27T04:04:00.594Z,103199.93
2019-03-27T04:05:01.349Z,103200.64
2019-03-27T04:06:02.174Z,103200.63
2019-03-27T04:07:02.108Z,103201.19
2019-03-27T04:08:04.079Z,103201.73
2019-03-27T04:09:03.650Z,103202.05
2019-03-27T04:10:05.090Z,103202.77
2019-03-27T04:11:05.758Z,103204.20
2019-03-27T04:12:06.370Z,103204.72
2019-03-27T04:13:06.825Z,103205.44
2019-03-27T04:14:07.483Z,103206.59
2019-03-27T04:15:07.979Z,103207.22
2019-03-27T04:15:16.572Z,103226.47
2019-03-27T04:16:18.188Z,103226.03
2019-03-27T04:17:18.672Z,103226.11
2019-03-27T04:18:19.252Z,103226.20
2019-03-27T04:19:19.810Z,103226.02
2019-03-27T04:20:20.560Z,103226.17
2019-03-27T04:21:21.283Z,103225.84
2019-03-27T04:22:21.776Z,103225.92
2019-03-27T04:23:22.250Z,103225.89
2019-03-27T04:24:23.060Z,103225.89
2019-03-27T04:25:22.433Z,103226.06
2019-03-27T04:26:23.723Z,103226.80
2019-03-27T04:27:24.474Z,103226.87
2019-03-27T04:28:24.955Z,103226.61
2019-03-27T04:29:25.749Z,103226.94
2019-03-27T04:30:25.240Z,103227.22
2019-03-27T04:31:26.992Z,103227.45
2019-03-27T04:32:26.531Z,103227.36
2019-03-27T04:33:28.270Z,103227.76
2019-03-27T04:34:28.660Z,103228.26
2019-03-27T04:35:29.241Z,103228.36
2019-03-27T04:36:29.786Z,103228.43
2019-03-27T04:37:30.434Z,103228.27
2019-03-27T04:38:31.182Z,103228.33
2019-03-27T04:39:31.574Z,103228.57
2019-03-27T04:40:32.162Z,103228.14
2019-03-27T04:41:32.684Z,103228.31
2019-03-27T04:42:33.220Z,103228.05
2019-03-27T04:43:33.970Z,103228.10
2019-03-27T04:44:34.474Z,103227.81
2019-03-27T04:45:34.969Z,103227.79
2019-03-27T04:46:35.687Z,103227.84
2019-03-27T04:47:36.287Z,103228.56
2019-03-27T04:48:36.308Z,103228.78
2019-03-27T04:49:36.775Z,103229.66
2019-03-27T04:50:37.222Z,103230.05
2019-03-27T04:51:37.908Z,103230.59
2019-03-27T04:52:38.366Z,103231.39
2019-03-27T04:53:38.816Z,103231.70
2019-03-27T04:54:39.738Z,103232.08
2019-03-27T04:55:40.171Z,103232.80
2019-03-27T04:56:41.080Z,103233.59
2019-03-27T04:57:41.832Z,103233.88
2019-03-27T04:58:42.395Z,103234.99
2019-03-27T04:59:42.876Z,103235.69
2019-03-27T05:00:43.419Z,103236.13
2019-03-27T05:00:52.069Z,103248.40
2019-03-27T05:01:52.484Z,103248.40
2019-03-27T05:02:53.965Z,103248.23
2019-03-27T05:03:53.983Z,103248.56
2019-03-27T05:04:54.459Z,103248.73
2019-03-27T05:05:54.961Z,103248.90
2019-03-27T05:06:55.395Z,103250.00
2019-03-27T05:07:55.926Z,103250.06
2019-03-27T05:08:56.468Z,103251.41
2019-03-27T05:09:56.934Z,103251.67
2019-03-27T05:10:57.451Z,103252.91
2019-03-27T05:11:58.030Z,103253.51
2019-03-27T05:12:58.766Z,103254.84
2019-03-27T05:13:59.214Z,103255.92
2019-03-27T05:15:00.017Z,103256.98
2019-03-27T05:16:00.594Z,103257.98
2019-03-27T05:17:01.135Z,103258.89
2019-03-27T05:18:01.735Z,103259.56
2019-03-27T05:19:02.330Z,103261.14
2019-03-27T05:20:02.982Z,103262.64
2019-03-27T05:21:03.460Z,103263.45
2019-03-27T05:22:02.991Z,103264.69
2019-03-27T05:23:03.543Z,103265.93
2019-03-27T05:24:05.088Z,103266.56
2019-03-27T05:25:05.568Z,103267.41
2019-03-27T05:26:06.012Z,103268.75
2019-03-27T05:27:06.701Z,103270.15
2019-03-27T05:28:07.189Z,103271.13
2019-03-27T05:29:07.689Z,103272.50
2019-03-27T05:30:09.145Z,103273.41
2019-03-27T05:31:08.840Z,103274.19
2019-03-27T05:32:09.323Z,103275.00
2019-03-27T05:33:10.016Z,103276.23
2019-03-27T05:34:10.432Z,103277.64
2019-03-27T05:35:09.910Z,103278.62
2019-03-27T05:36:11.713Z,103279.28
2019-03-27T05:37:12.235Z,103280.09
2019-03-27T05:38:13.049Z,103280.86
2019-03-27T05:39:14.720Z,103281.50
2019-03-27T05:40:13.045Z,103282.73
2019-03-27T05:41:14.529Z,103283.57
2019-03-27T05:42:15.292Z,103284.08
2019-03-27T05:43:15.799Z,103285.08
2019-03-27T05:44:16.258Z,103285.72
2019-03-27T05:45:16.721Z,103286.29
2019-03-27T05:46:17.506Z,103287.36
2019-03-27T05:47:18.113Z,103287.92
2019-03-27T05:47:26.683Z,103296.77
2019-03-27T05:48:29.519Z,103296.60
2019-03-27T05:49:29.180Z,103296.60
2019-03-27T05:50:29.886Z,103296.50
2019-03-27T05:51:30.353Z,103297.20
2019-03-27T05:52:31.101Z,103297.03
2019-03-27T05:53:32.083Z,103297.36
2019-03-27T05:54:32.830Z,103297.96
2019-03-27T05:55:33.360Z,103298.39
2019-03-27T05:56:33.834Z,103298.66
2019-03-27T05:57:34.588Z,103298.66
2019-03-27T05:58:35.158Z,103298.42
2019-03-27T05:59:34.571Z,103298.95
2019-03-27T06:00:35.999Z,103299.31
2019-03-27T06:01:36.738Z,103300.01
2019-03-27T06:02:37.267Z,103300.20
2019-03-27T06:03:37.951Z,103300.56
2019-03-27T06:04:38.397Z,103301.16
2019-03-27T06:05:38.891Z,103302.05
2019-03-27T06:06:39.578Z,103302.91
2019-03-27T06:07:40.305Z,103303.80
2019-03-27T06:08:40.980Z,103304.19
2019-03-27T06:09:41.356Z,103304.31
2019-03-27T06:10:41.930Z,103305.53
2019-03-27T06:11:41.412Z,103305.72
2019-03-27T06:12:42.840Z,103306.69
2019-03-27T06:13:43.721Z,103307.31
2019-03-27T06:14:44.252Z,103307.53
2019-03-27T06:15:45.264Z,103308.83
2019-03-27T06:16:44.172Z,103309.78
2019-03-27T06:17:45.754Z,103310.50
2019-03-27T06:18:46.196Z,103311.22
2019-03-27T06:19:47.020Z,103312.20
2019-03-27T06:20:47.863Z,103313.43
2019-03-27T06:21:48.455Z,103315.02
2019-03-27T06:22:49.035Z,103316.30
2019-03-27T06:23:49.483Z,103317.78
2019-03-27T06:24:50.005Z,103319.30
2019-03-27T06:25:50.696Z,103320.38
2019-03-27T06:26:51.402Z,103321.95
2019-03-27T06:27:51.937Z,103322.94
2019-03-27T06:28:52.711Z,103324.22
2019-03-27T06:29:53.277Z,103325.79
2019-03-27T06:30:53.710Z,103326.80
2019-03-27T06:31:54.232Z,103328.73
2019-03-27T06:32:02.827Z,103349.78
2019-03-27T06:33:03.969Z,103350.12
2019-03-27T06:34:04.553Z,103349.78
2019-03-27T06:35:05.128Z,103349.97
2019-03-27T06:36:05.638Z,103350.09
2019-03-27T06:37:06.421Z,103350.77
2019-03-27T06:38:07.119Z,103351.23
2019-03-27T06:39:07.654Z,103351.82
2019-03-27T06:40:07.110Z,103352.37
2019-03-27T06:41:08.694Z,103352.55
2019-03-27T06:42:09.231Z,103352.41
2019-03-27T06:43:09.695Z,103352.80
2019-03-27T06:44:10.563Z,103352.81
2019-03-27T06:45:11.178Z,103352.80
2019-03-27T06:46:11.901Z,103352.58
2019-03-27T06:47:12.600Z,103353.09
2019-03-27T06:48:25.480Z,103353.05
2019-03-27T06:49:12.577Z,103352.56
2019-03-27T06:50:13.980Z,103352.17
2019-03-27T06:51:14.414Z,103351.95
2019-03-27T06:52:14.891Z,103351.43
2019-03-27T06:53:15.264Z,103351.11
2019-03-27T06:54:15.857Z,103350.97
2019-03-27T06:55:16.791Z,103350.92
2019-03-27T06:56:17.106Z,103351.08
2019-03-27T06:57:17.578Z,103351.45
2019-03-27T06:58:16.949Z,103351.11
2019-03-27T06:59:18.402Z,103350.70
2019-03-27T07:00:18.874Z,103350.45
2019-03-27T07:01:19.283Z,103349.97
2019-03-27T07:02:19.776Z,103349.59
2019-03-27T07:03:20.129Z,103348.77
2019-03-27T07:04:20.573Z,103348.31
2019-03-27T07:05:21.511Z,103348.52
2019-03-27T07:06:21.910Z,103349.00
2019-03-27T07:07:22.322Z,103349.33
2019-03-27T07:08:22.687Z,103350.17
2019-03-27T07:09:23.081Z,103350.77
2019-03-27T07:10:23.628Z,103351.20
2019-03-27T07:11:24.192Z,103351.87
2019-03-27T07:12:24.494Z,103352.79
2019-03-27T07:13:25.291Z,103354.19
2019-03-27T07:14:26.105Z,103354.74
2019-03-27T07:15:26.936Z,103355.75
2019-03-27T07:17:30.944Z,103361.30
2019-03-27T07:18:40.110Z,103361.30
2019-03-27T07:19:32.065Z,103361.66
2019-03-27T07:20:33.965Z,103361.92
2019-03-27T07:21:34.772Z,103361.50
2019-03-27T07:22:35.330Z,103362.31
2019-03-27T07:23:36.250Z,103362.20
2019-03-27T07:24:36.505Z,103362.67
2019-03-27T07:25:36.880Z,103363.03
2019-03-27T07:26:37.108Z,103363.27
2019-03-27T07:27:37.629Z,103363.62
2019-03-27T07:28:38.455Z,103363.05
2019-03-27T07:29:38.960Z,103362.81
2019-03-27T07:30:39.378Z,103363.10
2019-03-27T07:31:39.717Z,103362.60
2019-03-27T07:32:40.128Z,103362.67
2019-03-27T07:33:40.545Z,103362.41
2019-03-27T07:34:40.989Z,103362.23
2019-03-27T07:35:41.566Z,103361.86
2019-03-27T07:36:42.117Z,103362.17
2019-03-27T07:37:42.467Z,103362.68
2019-03-27T07:38:43.030Z,103362.90
2019-03-27T07:39:43.453Z,103363.33
2019-03-27T07:40:43.747Z,103363.67
2019-03-27T07:41:44.142Z,103364.30
2019-03-27T07:42:44.777Z,103364.64
2019-03-27T07:43:45.337Z,103365.47
2019-03-27T07:44:44.643Z,103365.37
2019-03-27T07:45:46.626Z,103365.75
2019-03-27T07:46:47.115Z,103366.63
2019-03-27T07:47:48.284Z,103367.14
2019-03-27T07:48:53.935Z,103367.92
2019-03-27T07:49:47.619Z,103368.77
2019-03-27T07:50:49.156Z,103369.08
2019-03-27T07:51:49.771Z,103369.83
2019-03-27T07:52:50.191Z,103370.67
2019-03-27T07:53:50.631Z,103371.30
2019-03-27T07:54:51.542Z,103372.02
2019-03-27T07:55:51.953Z,103372.61
2019-03-27T07:56:52.921Z,103373.29
2019-03-27T07:57:53.787Z,103374.02
2019-03-27T07:58:54.599Z,103374.34
2019-03-27T07:59:54.871Z,103375.48
2019-03-27T08:00:54.428Z,103376.19
2019-03-27T08:01:55.791Z,103376.59
2019-03-27T08:02:56.323Z,103377.05
2019-03-27T08:03:56.701Z,103377.25
2019-03-27T08:04:57.152Z,103377.95
2019-03-27T08:05:05.691Z,103384.27
2019-03-27T08:06:07.168Z,103383.59
2019-03-27T08:07:07.590Z,103383.44
2019-03-27T08:08:07.985Z,103383.34
2019-03-27T08:09:08.507Z,103383.31
2019-03-27T08:10:08.886Z,103383.58
2019-03-27T08:11:09.288Z,103383.70
2019-03-27T08:12:09.541Z,103384.23
2019-03-27T08:13:10.091Z,103383.45
2019-03-27T08:14:10.902Z,103383.63
2019-03-27T08:15:11.478Z,103383.97
2019-03-27T08:16:12.820Z,103383.58
2019-03-27T08:17:12.457Z,103383.22
2019-03-27T08:18:12.679Z,103383.14
2019-03-27T08:19:13.134Z,103382.56
2019-03-27T08:20:13.637Z,103382.55
2019-03-27T08:21:14.113Z,103382.67
2019-03-27T08:22:14.603Z,103382.28
2019-03-27T08:23:15.024Z,103381.81
2019-03-27T08:24:15.844Z,103382.17
2019-03-27T08:25:20.696Z,103382.22
2019-03-27T08:26:17.108Z,103382.03
2019-03-27T08:27:17.518Z,103382.75
2019-03-27T08:28:17.951Z,103382.22
2019-03-27T08:29:18.617Z,103382.24
2019-03-27T08:30:19.241Z,103382.58
2019-03-27T08:31:19.753Z,103383.27
2019-03-27T08:32:20.175Z,103383.08
2019-03-27T08:33:20.524Z,103383.70
2019-03-27T08:34:21.451Z,103383.97
2019-03-27T08:35:21.854Z,103384.33
2019-03-27T08:36:22.238Z,103384.30
2019-03-27T08:37:23.436Z,103384.56
2019-03-27T08:38:23.050Z,103384.52
2019-03-27T08:39:24.476Z,103384.81
2019-03-27T08:40:25.269Z,103384.81
2019-03-27T08:41:25.719Z,103384.57
2019-03-27T08:42:25.397Z,103384.84
2019-03-27T08:43:26.158Z,103385.02
2019-03-27T08:44:27.408Z,103385.30
2019-03-27T08:45:27.781Z,103385.82
2019-03-27T08:46:28.171Z,103385.73
2019-03-27T08:47:28.942Z,103386.34
2019-03-27T08:48:29.787Z,103386.34
2019-03-27T08:49:30.631Z,103385.57
2019-03-27T08:50:31.088Z,103385.56
2019-03-27T08:50:42.130Z,103383.64
2019-03-27T08:51:42.665Z,103383.04
2019-03-27T08:52:44.091Z,103383.45
2019-03-27T08:53:43.572Z,103382.87
2019-03-27T08:54:43.999Z,103383.05
2019-03-27T08:55:44.525Z,103382.80
2019-03-27T08:56:45.207Z,103382.70
2019-03-27T08:57:45.742Z,103382.65
2019-03-27T08:58:46.224Z,103382.23
2019-03-27T08:59:47.048Z,103382.23
2019-03-27T09:00:46.568Z,103382.33
2019-03-27T09:01:47.983Z,103382.67
2019-03-27T09:02:48.479Z,103383.17
2019-03-27T09:03:49.242Z,103383.87
2019-03-27T09:04:48.801Z,103384.81
2019-03-27T09:05:49.175Z,103384.96
2019-03-27T09:06:50.554Z,103385.90
2019-03-27T09:07:50.971Z,103386.33
2019-03-27T09:08:51.356Z,103386.52
2019-03-27T09:09:51.525Z,103386.59
2019-03-27T09:10:51.948Z,103386.45
2019-03-27T09:11:52.321Z,103387.28
2019-03-27T09:12:52.720Z,103387.63
2019-03-27T09:13:52.410Z,103387.89
2019-03-27T09:14:55.228Z,103388.64
2019-03-27T09:15:54.148Z,103388.81
2019-03-27T09:16:54.709Z,103389.73
2019-03-27T09:17:55.162Z,103389.50
2019-03-27T09:18:55.861Z,103389.34
2019-03-27T09:19:56.128Z,103389.66
2019-03-27T09:20:57.953Z,103389.91
2019-03-27T09:21:57.549Z,103389.91
2019-03-27T09:22:57.948Z,103390.14
2019-03-27T09:23:58.824Z,103390.05
2019-03-27T09:24:59.348Z,103390.97
2019-03-27T09:26:00.108Z,103391.20
2019-03-27T09:27:00.392Z,103391.34
2019-03-27T09:28:01.817Z,103392.03
2019-03-27T09:29:01.451Z,103391.76
2019-03-27T09:30:02.302Z,103391.66
2019-03-27T09:31:02.869Z,103391.70
2019-03-27T09:32:02.874Z,103391.69
2019-03-27T09:33:03.260Z,103392.23
2019-03-27T09:34:04.961Z,103393.14
2019-03-27T09:35:04.182Z,103393.75
2019-03-27T09:35:13.236Z,103403.69
2019-03-27T09:36:14.716Z,103403.29
2019-03-27T09:37:15.341Z,103403.80
2019-03-27T09:38:15.741Z,103403.13
2019-03-27T09:39:15.901Z,103403.70
2019-03-27T09:40:16.263Z,103404.06
2019-03-27T09:41:21.243Z,103404.06
2019-03-27T09:42:16.467Z,103404.31
2019-03-27T09:43:18.944Z,103404.47
2019-03-27T09:44:18.492Z,103404.22
2019-03-27T09:45:18.912Z,103404.66
2019-03-27T09:46:19.483Z,103404.67
2019-03-27T09:47:20.327Z,103404.84
2019-03-27T09:48:20.944Z,103404.25
2019-03-27T09:49:20.428Z,103404.58
2019-03-27T09:50:22.195Z,103404.41
2019-03-27T09:51:22.875Z,103404.56
2019-03-27T09:52:23.516Z,103404.36
2019-03-27T09:53:24.417Z,103404.52
2019-03-27T09:54:24.814Z,103404.39
2019-03-27T09:55:25.333Z,103404.47
2019-03-27T09:56:26.116Z,103404.88
2019-03-27T09:57:26.679Z,103404.61
2019-03-27T09:58:27.228Z,103404.17
2019-03-27T09:59:27.521Z,103404.26
2019-03-27T10:00:28.030Z,103404.09
2019-03-27T10:01:28.534Z,103403.82
2019-03-27T10:02:29.005Z,103403.50
2019-03-27T10:03:28.165Z,103403.48
2019-03-27T10:04:29.716Z,103402.66
2019-03-27T10:05:29.737Z,103402.66
2019-03-27T10:06:29.763Z,103402.30
2019-03-27T10:07:30.249Z,103401.86
2019-03-27T10:08:30.629Z,103401.34
2019-03-27T10:09:31.510Z,103400.31
2019-03-27T10:10:31.994Z,103399.54
2019-03-27T10:11:32.766Z,103399.19
2019-03-27T10:12:32.990Z,103398.27
2019-03-27T10:13:33.709Z,103398.15
2019-03-27T10:14:34.331Z,103397.78
2019-03-27T10:15:33.933Z,103397.45
2019-03-27T10:16:35.273Z,103397.35
2019-03-27T10:17:34.574Z,103397.11
2019-03-27T10:18:36.051Z,103396.67
2019-03-27T10:19:36.081Z,103396.58
2019-03-27T10:20:36.624Z,103396.70
2019-03-27T10:20:45.500Z,103402.37
2019-03-27T10:21:47.162Z,103402.03
2019-03-27T10:22:49.162Z,103401.36
2019-03-27T10:23:47.494Z,103401.12
2019-03-27T10:24:49.233Z,103400.88
2019-03-27T10:25:49.361Z,103401.02
2019-03-27T10:26:49.793Z,103400.20
2019-03-27T10:27:50.286Z,103400.11
2019-03-27T10:28:50.740Z,103399.62
2019-03-27T10:29:52.269Z,103398.66
2019-03-27T10:30:51.090Z,103397.91
2019-03-27T10:31:51.605Z,103397.48
2019-03-27T10:32:52.889Z,103397.05
2019-03-27T10:33:53.141Z,103396.18
2019-03-27T10:34:52.924Z,103395.54
2019-03-27T10:35:53.198Z,103394.73
2019-03-27T10:36:54.577Z,103394.19
2019-03-27T10:37:55.371Z,103393.98
2019-03-27T10:38:54.812Z,103393.14
2019-03-27T10:39:55.158Z,103392.66
2019-03-27T10:40:56.502Z,103391.61
2019-03-27T10:41:56.925Z,103390.87
2019-03-27T10:42:57.689Z,103390.22
2019-03-27T10:43:58.021Z,103389.83
2019-03-27T10:44:57.245Z,103389.20
2019-03-27T10:45:59.081Z,103389.19
2019-03-27T10:46:59.569Z,103388.56
2019-03-27T10:48:00.102Z,103387.99
2019-03-27T10:49:00.742Z,103387.81
2019-03-27T10:50:01.610Z,103387.55
2019-03-27T10:51:02.181Z,103387.62
2019-03-27T10:52:02.666Z,103387.70
2019-03-27T10:53:03.119Z,103387.72
2019-03-27T10:54:03.617Z,103388.16
2019-03-27T10:55:03.899Z,103388.59
2019-03-27T10:56:03.780Z,103388.78
2019-03-27T10:57:05.217Z,103388.78
2019-03-27T10:58:05.582Z,103389.17
2019-03-27T10:59:06.372Z,103389.27
2019-03-27T11:00:06.679Z,103389.47
2019-03-27T11:01:07.310Z,103388.97
2019-03-27T11:02:06.925Z,103389.23
2019-03-27T11:03:08.446Z,103388.89
2019-03-27T11:04:08.009Z,103388.02
2019-03-27T11:05:09.012Z,103388.08
2019-03-27T11:06:09.655Z,103387.82
2019-03-27T11:07:10.269Z,103387.36
2019-03-27T11:08:11.544Z,103386.29
2019-03-27T11:09:10.471Z,103385.15
2019-03-27T11:10:12.041Z,103384.02
2019-03-27T11:11:12.191Z,103383.65
2019-03-27T11:12:12.643Z,103383.34
2019-03-27T11:13:13.188Z,103382.65
2019-03-27T11:14:13.602Z,103382.39
2019-03-27T11:15:14.522Z,103381.45
2019-03-27T11:15:23.062Z,103378.09
2019-03-27T11:16:24.160Z,103377.16
2019-03-27T11:17:24.808Z,103376.98
2019-03-27T11:18:24.400Z,103376.79
2019-03-27T11:19:26.171Z,103376.44
2019-03-27T11:20:31.111Z,103376.27